sensor_id;sensor_type;location;lat;lon;timestamp;P1;durP1;ratioP1;P2;durP2;ratioP2
27804;SDS011;15183;51.350;11.102;2023-04-24T00:00:36;7.43;;;4.63;;
27804;SDS011;15183;51.350;11.102;2023-04-24T00:03:06;4.40;;;3.88;;
27804;SDS011;15183;51.350;11.102;2023-04-24T00:05:33;8.50;;;6.13;;
27804;SDS011;15183;51.350;11.102;2023-04-24T00:07:59;13.13;;;5.63;;
27804;SDS011;15183;51.350;11.102;2023-04-24T00:10:26;5.28;;;4.10;;
27804;SDS011;15183;51.350;11.102;2023-04-24T00:12:52;4.00;;;2.95;;
27804;SDS011;15183;51.350;11.102;2023-04-24T00:15:19;4.60;;;3.53;;
27804;SDS011;15183;51.350;11.102;2023-04-24T00:17:45;8.65;;;4.57;;
27804;SDS011;15183;51.350;11.102;2023-04-24T00:20:11;5.47;;;4.05;;
27804;SDS011;15183;51.350;11.102;2023-04-24T00:22:40;5.47;;;3.88;;
27804;SDS011;15183;51.350;11.102;2023-04-24T00:25:06;5.18;;;3.30;;
27804;SDS011;15183;51.350;11.102;2023-04-24T00:27:33;3.53;;;2.22;;
27804;SDS011;15183;51.350;11.102;2023-04-24T00:30:02;6.05;;;4.57;;
27804;SDS011;15183;51.350;11.102;2023-04-24T00:32:29;4.15;;;3.42;;
27804;SDS011;15183;51.350;11.102;2023-04-24T00:34:56;8.43;;;6.05;;
27804;SDS011;15183;51.350;11.102;2023-04-24T00:37:22;8.07;;;5.95;;
27804;SDS011;15183;51.350;11.102;2023-04-24T00:39:48;6.22;;;4.40;;
27804;SDS011;15183;51.350;11.102;2023-04-24T00:42:15;4.68;;;3.30;;
27804;SDS011;15183;51.350;11.102;2023-04-24T00:44:41;5.05;;;3.25;;
27804;SDS011;15183;51.350;11.102;2023-04-24T00:47:08;5.35;;;3.53;;
27804;SDS011;15183;51.350;11.102;2023-04-24T00:49:34;5.78;;;3.08;;
27804;SDS011;15183;51.350;11.102;2023-04-24T00:52:01;8.68;;;5.57;;
27804;SDS011;15183;51.350;11.102;2023-04-24T00:54:27;4.32;;;3.20;;
27804;SDS011;15183;51.350;11.102;2023-04-24T00:56:54;4.85;;;3.95;;
27804;SDS011;15183;51.350;11.102;2023-04-24T00:59:20;6.07;;;4.28;;
27804;SDS011;15183;51.350;11.102;2023-04-24T01:01:47;4.07;;;2.85;;
27804;SDS011;15183;51.350;11.102;2023-04-24T01:04:13;6.82;;;4.75;;
27804;SDS011;15183;51.350;11.102;2023-04-24T01:06:41;6.82;;;5.22;;
27804;SDS011;15183;51.350;11.102;2023-04-24T01:09:09;4.93;;;3.38;;
27804;SDS011;15183;51.350;11.102;2023-04-24T01:11:37;5.72;;;4.05;;
27804;SDS011;15183;51.350;11.102;2023-04-24T01:14:03;5.50;;;4.32;;
27804;SDS011;15183;51.350;11.102;2023-04-24T01:16:30;6.20;;;3.90;;
27804;SDS011;15183;51.350;11.102;2023-04-24T01:18:56;5.15;;;2.65;;
27804;SDS011;15183;51.350;11.102;2023-04-24T01:21:23;2.50;;;1.88;;
27804;SDS011;15183;51.350;11.102;2023-04-24T01:23:53;3.47;;;2.13;;
27804;SDS011;15183;51.350;11.102;2023-04-24T01:26:21;7.43;;;5.50;;
27804;SDS011;15183;51.350;11.102;2023-04-24T01:28:48;3.33;;;2.65;;
27804;SDS011;15183;51.350;11.102;2023-04-24T01:31:15;4.93;;;4.20;;
27804;SDS011;15183;51.350;11.102;2023-04-24T01:33:42;3.53;;;3.15;;
27804;SDS011;15183;51.350;11.102;2023-04-24T01:36:09;4.45;;;3.30;;
27804;SDS011;15183;51.350;11.102;2023-04-24T01:38:37;5.93;;;3.90;;
27804;SDS011;15183;51.350;11.102;2023-04-24T01:41:03;4.72;;;3.63;;
27804;SDS011;15183;51.350;11.102;2023-04-24T01:43:30;4.22;;;3.53;;
27804;SDS011;15183;51.350;11.102;2023-04-24T01:45:57;4.55;;;3.50;;
27804;SDS011;15183;51.350;11.102;2023-04-24T01:48:24;3.60;;;2.47;;
27804;SDS011;15183;51.350;11.102;2023-04-24T01:50:50;3.28;;;2.88;;
27804;SDS011;15183;51.350;11.102;2023-04-24T01:53:16;2.83;;;2.35;;
27804;SDS011;15183;51.350;11.102;2023-04-24T01:55:43;2.55;;;1.75;;
27804;SDS011;15183;51.350;11.102;2023-04-24T01:58:09;4.30;;;3.22;;
27804;SDS011;15183;51.350;11.102;2023-04-24T02:00:36;3.60;;;2.60;;
27804;SDS011;15183;51.350;11.102;2023-04-24T02:03:02;2.75;;;2.03;;
27804;SDS011;15183;51.350;11.102;2023-04-24T02:05:29;2.60;;;2.25;;
27804;SDS011;15183;51.350;11.102;2023-04-24T02:07:55;3.17;;;2.35;;
27804;SDS011;15183;51.350;11.102;2023-04-24T02:10:21;4.68;;;2.60;;
27804;SDS011;15183;51.350;11.102;2023-04-24T02:12:48;3.17;;;1.90;;
27804;SDS011;15183;51.350;11.102;2023-04-24T02:15:14;3.97;;;1.60;;
27804;SDS011;15183;51.350;11.102;2023-04-24T02:17:41;3.33;;;2.15;;
27804;SDS011;15183;51.350;11.102;2023-04-24T02:20:08;2.10;;;1.27;;
27804;SDS011;15183;51.350;11.102;2023-04-24T02:22:34;2.22;;;0.95;;
27804;SDS011;15183;51.350;11.102;2023-04-24T02:25:01;1.90;;;1.25;;
27804;SDS011;15183;51.350;11.102;2023-04-24T02:27:28;2.83;;;1.20;;
27804;SDS011;15183;51.350;11.102;2023-04-24T02:29:54;3.85;;;1.52;;
27804;SDS011;15183;51.350;11.102;2023-04-24T02:32:20;2.80;;;2.30;;
27804;SDS011;15183;51.350;11.102;2023-04-24T02:34:47;1.33;;;1.10;;
27804;SDS011;15183;51.350;11.102;2023-04-24T02:37:13;3.10;;;2.67;;
27804;SDS011;15183;51.350;11.102;2023-04-24T02:39:40;1.73;;;1.30;;
27804;SDS011;15183;51.350;11.102;2023-04-24T02:42:06;2.70;;;1.17;;
27804;SDS011;15183;51.350;11.102;2023-04-24T02:44:33;1.50;;;1.35;;
27804;SDS011;15183;51.350;11.102;2023-04-24T02:47:00;3.60;;;2.78;;
27804;SDS011;15183;51.350;11.102;2023-04-24T02:49:26;4.75;;;2.72;;
27804;SDS011;15183;51.350;11.102;2023-04-24T02:51:52;5.32;;;4.00;;
27804;SDS011;15183;51.350;11.102;2023-04-24T02:54:19;4.40;;;2.97;;
27804;SDS011;15183;51.350;11.102;2023-04-24T02:56:45;3.28;;;2.47;;
27804;SDS011;15183;51.350;11.102;2023-04-24T02:59:12;4.70;;;3.40;;
27804;SDS011;15183;51.350;11.102;2023-04-24T03:01:38;4.68;;;3.08;;
27804;SDS011;15183;51.350;11.102;2023-04-24T03:04:04;3.60;;;2.45;;
27804;SDS011;15183;51.350;11.102;2023-04-24T03:06:31;3.83;;;3.05;;
27804;SDS011;15183;51.350;11.102;2023-04-24T03:08:58;5.53;;;4.30;;
27804;SDS011;15183;51.350;11.102;2023-04-24T03:11:24;4.78;;;4.15;;
27804;SDS011;15183;51.350;11.102;2023-04-24T03:13:51;6.72;;;4.10;;
27804;SDS011;15183;51.350;11.102;2023-04-24T03:16:17;4.15;;;2.80;;
27804;SDS011;15183;51.350;11.102;2023-04-24T03:18:44;7.40;;;4.93;;
27804;SDS011;15183;51.350;11.102;2023-04-24T03:21:11;8.70;;;3.63;;
27804;SDS011;15183;51.350;11.102;2023-04-24T03:23:37;2.47;;;2.20;;
27804;SDS011;15183;51.350;11.102;2023-04-24T03:26:04;9.43;;;6.05;;
27804;SDS011;15183;51.350;11.102;2023-04-24T03:28:30;10.90;;;7.65;;
27804;SDS011;15183;51.350;11.102;2023-04-24T03:30:57;9.95;;;7.22;;
27804;SDS011;15183;51.350;11.102;2023-04-24T03:33:23;11.77;;;7.10;;
27804;SDS011;15183;51.350;11.102;2023-04-24T03:35:50;13.30;;;7.88;;
27804;SDS011;15183;51.350;11.102;2023-04-24T03:38:16;21.85;;;11.65;;
27804;SDS011;15183;51.350;11.102;2023-04-24T03:40:42;26.60;;;14.10;;
27804;SDS011;15183;51.350;11.102;2023-04-24T03:43:09;19.48;;;11.07;;
27804;SDS011;15183;51.350;11.102;2023-04-24T03:45:35;16.67;;;9.55;;
27804;SDS011;15183;51.350;11.102;2023-04-24T03:48:02;16.60;;;9.48;;
27804;SDS011;15183;51.350;11.102;2023-04-24T03:50:28;12.82;;;7.68;;
27804;SDS011;15183;51.350;11.102;2023-04-24T03:52:55;7.35;;;5.05;;
27804;SDS011;15183;51.350;11.102;2023-04-24T03:55:21;7.68;;;4.20;;
27804;SDS011;15183;51.350;11.102;2023-04-24T03:57:48;6.18;;;4.20;;
27804;SDS011;15183;51.350;11.102;2023-04-24T04:00:14;4.43;;;3.03;;
27804;SDS011;15183;51.350;11.102;2023-04-24T04:02:41;5.88;;;4.10;;
27804;SDS011;15183;51.350;11.102;2023-04-24T04:05:07;8.60;;;4.40;;
27804;SDS011;15183;51.350;11.102;2023-04-24T04:07:34;4.38;;;2.97;;
27804;SDS011;15183;51.350;11.102;2023-04-24T04:10:00;3.05;;;2.45;;
27804;SDS011;15183;51.350;11.102;2023-04-24T04:12:27;1.88;;;1.10;;
27804;SDS011;15183;51.350;11.102;2023-04-24T04:14:53;5.80;;;3.47;;
27804;SDS011;15183;51.350;11.102;2023-04-24T04:17:19;3.65;;;2.58;;
27804;SDS011;15183;51.350;11.102;2023-04-24T04:19:46;6.35;;;3.92;;
27804;SDS011;15183;51.350;11.102;2023-04-24T04:22:12;7.05;;;3.90;;
27804;SDS011;15183;51.350;11.102;2023-04-24T04:24:39;7.05;;;4.88;;
27804;SDS011;15183;51.350;11.102;2023-04-24T04:27:06;7.55;;;4.45;;
27804;SDS011;15183;51.350;11.102;2023-04-24T04:29:33;5.60;;;3.40;;
27804;SDS011;15183;51.350;11.102;2023-04-24T04:32:00;3.22;;;2.92;;
27804;SDS011;15183;51.350;11.102;2023-04-24T04:34:28;5.05;;;3.72;;
27804;SDS011;15183;51.350;11.102;2023-04-24T04:36:55;10.30;;;6.18;;
27804;SDS011;15183;51.350;11.102;2023-04-24T04:39:21;10.13;;;6.82;;
27804;SDS011;15183;51.350;11.102;2023-04-24T04:41:48;5.07;;;4.20;;
27804;SDS011;15183;51.350;11.102;2023-04-24T04:44:14;4.97;;;3.38;;
27804;SDS011;15183;51.350;11.102;2023-04-24T04:46:40;3.42;;;2.00;;
27804;SDS011;15183;51.350;11.102;2023-04-24T04:49:07;2.60;;;2.08;;
27804;SDS011;15183;51.350;11.102;2023-04-24T04:51:34;3.35;;;2.15;;
27804;SDS011;15183;51.350;11.102;2023-04-24T04:54:00;3.13;;;2.50;;
27804;SDS011;15183;51.350;11.102;2023-04-24T04:56:27;5.45;;;2.67;;
27804;SDS011;15183;51.350;11.102;2023-04-24T04:58:53;5.88;;;4.55;;
27804;SDS011;15183;51.350;11.102;2023-04-24T05:01:20;7.30;;;4.78;;
27804;SDS011;15183;51.350;11.102;2023-04-24T05:03:48;7.13;;;5.18;;
27804;SDS011;15183;51.350;11.102;2023-04-24T05:06:15;4.50;;;3.63;;
27804;SDS011;15183;51.350;11.102;2023-04-24T05:08:41;3.33;;;2.92;;
27804;SDS011;15183;51.350;11.102;2023-04-24T05:11:07;3.15;;;2.50;;
27804;SDS011;15183;51.350;11.102;2023-04-24T05:13:34;5.22;;;4.57;;
27804;SDS011;15183;51.350;11.102;2023-04-24T05:16:00;8.20;;;6.00;;
27804;SDS011;15183;51.350;11.102;2023-04-24T05:18:27;7.57;;;5.07;;
27804;SDS011;15183;51.350;11.102;2023-04-24T05:20:53;8.40;;;5.47;;
27804;SDS011;15183;51.350;11.102;2023-04-24T05:23:20;6.10;;;4.65;;
27804;SDS011;15183;51.350;11.102;2023-04-24T05:25:46;12.38;;;8.15;;
27804;SDS011;15183;51.350;11.102;2023-04-24T05:28:13;19.23;;;13.40;;
27804;SDS011;15183;51.350;11.102;2023-04-24T05:30:40;13.38;;;9.45;;
27804;SDS011;15183;51.350;11.102;2023-04-24T05:33:07;11.48;;;7.07;;
27804;SDS011;15183;51.350;11.102;2023-04-24T05:35:34;12.00;;;9.05;;
27804;SDS011;15183;51.350;11.102;2023-04-24T05:38:01;11.02;;;8.13;;
27804;SDS011;15183;51.350;11.102;2023-04-24T05:40:27;8.93;;;6.63;;
27804;SDS011;15183;51.350;11.102;2023-04-24T05:42:53;9.27;;;7.03;;
27804;SDS011;15183;51.350;11.102;2023-04-24T05:45:20;10.50;;;7.32;;
27804;SDS011;15183;51.350;11.102;2023-04-24T05:47:46;8.88;;;6.43;;
27804;SDS011;15183;51.350;11.102;2023-04-24T05:50:13;3.55;;;2.90;;
27804;SDS011;15183;51.350;11.102;2023-04-24T05:52:39;6.57;;;5.18;;
27804;SDS011;15183;51.350;11.102;2023-04-24T05:55:06;7.60;;;5.70;;
27804;SDS011;15183;51.350;11.102;2023-04-24T05:57:33;5.97;;;3.42;;
27804;SDS011;15183;51.350;11.102;2023-04-24T05:59:59;7.50;;;5.53;;
27804;SDS011;15183;51.350;11.102;2023-04-24T06:02:25;8.98;;;5.43;;
27804;SDS011;15183;51.350;11.102;2023-04-24T06:04:53;8.65;;;5.43;;
27804;SDS011;15183;51.350;11.102;2023-04-24T06:07:19;8.55;;;4.93;;
27804;SDS011;15183;51.350;11.102;2023-04-24T06:09:46;9.25;;;6.00;;
27804;SDS011;15183;51.350;11.102;2023-04-24T06:12:12;6.68;;;4.40;;
27804;SDS011;15183;51.350;11.102;2023-04-24T06:14:39;11.43;;;6.80;;
27804;SDS011;15183;51.350;11.102;2023-04-24T06:17:05;7.18;;;5.25;;
27804;SDS011;15183;51.350;11.102;2023-04-24T06:19:31;5.00;;;4.45;;
27804;SDS011;15183;51.350;11.102;2023-04-24T06:21:58;7.20;;;5.53;;
27804;SDS011;15183;51.350;11.102;2023-04-24T06:24:28;5.95;;;4.40;;
27804;SDS011;15183;51.350;11.102;2023-04-24T06:26:54;5.43;;;3.92;;
27804;SDS011;15183;51.350;11.102;2023-04-24T06:29:22;6.55;;;4.47;;
27804;SDS011;15183;51.350;11.102;2023-04-24T06:31:49;7.63;;;5.30;;
27804;SDS011;15183;51.350;11.102;2023-04-24T06:34:15;4.93;;;3.78;;
27804;SDS011;15183;51.350;11.102;2023-04-24T06:36:42;7.80;;;6.32;;
27804;SDS011;15183;51.350;11.102;2023-04-24T06:39:08;7.55;;;4.53;;
27804;SDS011;15183;51.350;11.102;2023-04-24T06:41:35;4.57;;;4.13;;
27804;SDS011;15183;51.350;11.102;2023-04-24T06:44:01;8.15;;;4.93;;
27804;SDS011;15183;51.350;11.102;2023-04-24T06:46:28;5.20;;;3.83;;
27804;SDS011;15183;51.350;11.102;2023-04-24T06:48:54;6.63;;;4.38;;
27804;SDS011;15183;51.350;11.102;2023-04-24T06:51:23;5.80;;;4.65;;
27804;SDS011;15183;51.350;11.102;2023-04-24T06:53:51;2.97;;;2.47;;
27804;SDS011;15183;51.350;11.102;2023-04-24T06:56:19;3.38;;;2.67;;
27804;SDS011;15183;51.350;11.102;2023-04-24T06:58:46;4.72;;;3.47;;
27804;SDS011;15183;51.350;11.102;2023-04-24T07:01:12;5.25;;;3.92;;
27804;SDS011;15183;51.350;11.102;2023-04-24T07:03:39;6.32;;;3.97;;
27804;SDS011;15183;51.350;11.102;2023-04-24T07:06:05;8.13;;;6.65;;
27804;SDS011;15183;51.350;11.102;2023-04-24T07:08:32;10.07;;;7.13;;
27804;SDS011;15183;51.350;11.102;2023-04-24T07:10:59;9.63;;;7.05;;
27804;SDS011;15183;51.350;11.102;2023-04-24T07:13:26;5.45;;;4.47;;
27804;SDS011;15183;51.350;11.102;2023-04-24T07:15:53;9.60;;;6.93;;
27804;SDS011;15183;51.350;11.102;2023-04-24T07:18:21;11.43;;;8.10;;
27804;SDS011;15183;51.350;11.102;2023-04-24T07:20:48;6.85;;;5.00;;
27804;SDS011;15183;51.350;11.102;2023-04-24T07:23:16;8.40;;;6.25;;
27804;SDS011;15183;51.350;11.102;2023-04-24T07:25:43;15.70;;;10.90;;
27804;SDS011;15183;51.350;11.102;2023-04-24T07:28:10;10.65;;;7.80;;
27804;SDS011;15183;51.350;11.102;2023-04-24T07:30:36;13.65;;;9.70;;
27804;SDS011;15183;51.350;11.102;2023-04-24T07:33:03;7.15;;;5.45;;
27804;SDS011;15183;51.350;11.102;2023-04-24T07:35:29;9.00;;;6.65;;
27804;SDS011;15183;51.350;11.102;2023-04-24T07:37:55;9.43;;;5.75;;
27804;SDS011;15183;51.350;11.102;2023-04-24T07:40:22;13.35;;;9.40;;
27804;SDS011;15183;51.350;11.102;2023-04-24T07:42:49;11.82;;;7.43;;
27804;SDS011;15183;51.350;11.102;2023-04-24T07:45:15;11.10;;;6.97;;
27804;SDS011;15183;51.350;11.102;2023-04-24T07:47:42;10.13;;;7.63;;
27804;SDS011;15183;51.350;11.102;2023-04-24T07:50:11;9.02;;;5.57;;
27804;SDS011;15183;51.350;11.102;2023-04-24T07:52:38;14.50;;;9.10;;
27804;SDS011;15183;51.350;11.102;2023-04-24T07:55:05;16.25;;;12.02;;
27804;SDS011;15183;51.350;11.102;2023-04-24T07:57:32;13.82;;;9.27;;
27804;SDS011;15183;51.350;11.102;2023-04-24T07:59:59;16.83;;;11.77;;
27804;SDS011;15183;51.350;11.102;2023-04-24T08:02:25;12.13;;;8.73;;
27804;SDS011;15183;51.350;11.102;2023-04-24T08:04:54;14.15;;;10.63;;
27804;SDS011;15183;51.350;11.102;2023-04-24T08:07:21;11.18;;;8.63;;
27804;SDS011;15183;51.350;11.102;2023-04-24T08:09:48;13.10;;;8.68;;
27804;SDS011;15183;51.350;11.102;2023-04-24T08:12:15;10.95;;;8.05;;
27804;SDS011;15183;51.350;11.102;2023-04-24T08:14:41;13.40;;;8.73;;
27804;SDS011;15183;51.350;11.102;2023-04-24T08:17:08;9.50;;;7.47;;
27804;SDS011;15183;51.350;11.102;2023-04-24T08:19:34;13.00;;;7.88;;
27804;SDS011;15183;51.350;11.102;2023-04-24T08:22:01;10.90;;;8.38;;
27804;SDS011;15183;51.350;11.102;2023-04-24T08:24:28;12.98;;;8.43;;
27804;SDS011;15183;51.350;11.102;2023-04-24T08:26:54;19.45;;;12.77;;
27804;SDS011;15183;51.350;11.102;2023-04-24T08:29:23;19.02;;;12.15;;
27804;SDS011;15183;51.350;11.102;2023-04-24T08:31:50;25.20;;;16.75;;
27804;SDS011;15183;51.350;11.102;2023-04-24T08:34:17;12.63;;;9.93;;
27804;SDS011;15183;51.350;11.102;2023-04-24T08:36:43;22.33;;;15.02;;
27804;SDS011;15183;51.350;11.102;2023-04-24T08:39:10;21.23;;;14.88;;
27804;SDS011;15183;51.350;11.102;2023-04-24T08:41:36;21.00;;;14.55;;
27804;SDS011;15183;51.350;11.102;2023-04-24T08:44:03;14.27;;;10.40;;
27804;SDS011;15183;51.350;11.102;2023-04-24T08:46:31;20.25;;;14.75;;
27804;SDS011;15183;51.350;11.102;2023-04-24T08:48:58;17.80;;;13.07;;
27804;SDS011;15183;51.350;11.102;2023-04-24T08:51:25;26.17;;;18.38;;
27804;SDS011;15183;51.350;11.102;2023-04-24T08:53:53;24.25;;;17.38;;
27804;SDS011;15183;51.350;11.102;2023-04-24T08:56:21;10.52;;;7.53;;
27804;SDS011;15183;51.350;11.102;2023-04-24T08:58:50;19.38;;;11.02;;
27804;SDS011;15183;51.350;11.102;2023-04-24T09:01:18;9.45;;;7.20;;
27804;SDS011;15183;51.350;11.102;2023-04-24T09:03:49;8.55;;;5.60;;
27804;SDS011;15183;51.350;11.102;2023-04-24T09:06:16;8.45;;;6.15;;
27804;SDS011;15183;51.350;11.102;2023-04-24T09:08:45;6.97;;;4.93;;
27804;SDS011;15183;51.350;11.102;2023-04-24T09:11:12;8.43;;;5.05;;
27804;SDS011;15183;51.350;11.102;2023-04-24T09:13:39;5.75;;;4.03;;
27804;SDS011;15183;51.350;11.102;2023-04-24T09:16:05;5.50;;;4.45;;
27804;SDS011;15183;51.350;11.102;2023-04-24T09:18:32;7.68;;;5.15;;
27804;SDS011;15183;51.350;11.102;2023-04-24T09:23:30;5.40;;;3.92;;
27804;SDS011;15183;51.350;11.102;2023-04-24T09:25:58;4.35;;;3.50;;
27804;SDS011;15183;51.350;11.102;2023-04-24T09:31:11;2.90;;;2.53;;
27804;SDS011;15183;51.350;11.102;2023-04-24T09:33:58;2.00;;;1.80;;
27804;SDS011;15183;51.350;11.102;2023-04-24T09:39:04;3.47;;;2.75;;
27804;SDS011;15183;51.350;11.102;2023-04-24T09:41:48;3.30;;;2.20;;
27804;SDS011;15183;51.350;11.102;2023-04-24T09:44:24;4.72;;;3.83;;
27804;SDS011;15183;51.350;11.102;2023-04-24T09:46:56;4.72;;;3.72;;
27804;SDS011;15183;51.350;11.102;2023-04-24T09:49:28;3.22;;;2.38;;
27804;SDS011;15183;51.350;11.102;2023-04-24T09:52:06;4.25;;;3.05;;
27804;SDS011;15183;51.350;11.102;2023-04-24T09:54:36;3.95;;;3.30;;
27804;SDS011;15183;51.350;11.102;2023-04-24T09:57:04;2.72;;;2.35;;
27804;SDS011;15183;51.350;11.102;2023-04-24T09:59:35;6.18;;;4.25;;
27804;SDS011;15183;51.350;11.102;2023-04-24T10:02:18;7.03;;;5.03;;
27804;SDS011;15183;51.350;11.102;2023-04-24T10:04:55;11.57;;;7.00;;
27804;SDS011;15183;51.350;11.102;2023-04-24T10:07:25;3.90;;;2.85;;
27804;SDS011;15183;51.350;11.102;2023-04-24T10:09:52;6.90;;;3.88;;
27804;SDS011;15183;51.350;11.102;2023-04-24T10:12:19;10.63;;;5.55;;
27804;SDS011;15183;51.350;11.102;2023-04-24T10:14:45;8.13;;;5.18;;
27804;SDS011;15183;51.350;11.102;2023-04-24T10:17:12;13.90;;;5.15;;
27804;SDS011;15183;51.350;11.102;2023-04-24T10:19:39;6.32;;;4.38;;
27804;SDS011;15183;51.350;11.102;2023-04-24T10:22:08;7.47;;;4.35;;
27804;SDS011;15183;51.350;11.102;2023-04-24T10:24:35;3.55;;;2.95;;
27804;SDS011;15183;51.350;11.102;2023-04-24T10:27:03;6.60;;;4.30;;
27804;SDS011;15183;51.350;11.102;2023-04-24T10:29:31;5.40;;;4.25;;
27804;SDS011;15183;51.350;11.102;2023-04-24T10:31:58;6.75;;;3.72;;
27804;SDS011;15183;51.350;11.102;2023-04-24T10:34:24;7.75;;;3.80;;
27804;SDS011;15183;51.350;11.102;2023-04-24T10:36:51;3.20;;;2.10;;
27804;SDS011;15183;51.350;11.102;2023-04-24T10:39:20;9.45;;;5.07;;
27804;SDS011;15183;51.350;11.102;2023-04-24T10:41:51;6.78;;;4.45;;
27804;SDS011;15183;51.350;11.102;2023-04-24T10:44:17;8.15;;;3.80;;
27804;SDS011;15183;51.350;11.102;2023-04-24T10:46:44;3.90;;;2.83;;
27804;SDS011;15183;51.350;11.102;2023-04-24T10:49:18;5.40;;;3.17;;
27804;SDS011;15183;51.350;11.102;2023-04-24T10:51:59;3.55;;;1.90;;
27804;SDS011;15183;51.350;11.102;2023-04-24T10:54:34;3.53;;;2.90;;
27804;SDS011;15183;51.350;11.102;2023-04-24T10:59:51;5.75;;;4.43;;
27804;SDS011;15183;51.350;11.102;2023-04-24T11:02:37;6.28;;;3.58;;
27804;SDS011;15183;51.350;11.102;2023-04-24T11:05:06;7.30;;;4.63;;
27804;SDS011;15183;51.350;11.102;2023-04-24T11:10:38;5.88;;;4.22;;
27804;SDS011;15183;51.350;11.102;2023-04-24T11:13:16;2.45;;;2.17;;
27804;SDS011;15183;51.350;11.102;2023-04-24T11:15:42;5.68;;;3.95;;
27804;SDS011;15183;51.350;11.102;2023-04-24T11:18:13;4.68;;;2.97;;
27804;SDS011;15183;51.350;11.102;2023-04-24T11:20:42;2.10;;;1.40;;
27804;SDS011;15183;51.350;11.102;2023-04-24T11:23:12;5.95;;;3.55;;
27804;SDS011;15183;51.350;11.102;2023-04-24T11:25:40;1.95;;;1.75;;
27804;SDS011;15183;51.350;11.102;2023-04-24T11:28:07;9.30;;;3.22;;
27804;SDS011;15183;51.350;11.102;2023-04-24T11:30:41;9.65;;;5.70;;
27804;SDS011;15183;51.350;11.102;2023-04-24T11:33:07;10.43;;;5.55;;
27804;SDS011;15183;51.350;11.102;2023-04-24T11:35:34;7.78;;;5.65;;
27804;SDS011;15183;51.350;11.102;2023-04-24T11:38:05;5.45;;;4.10;;
27804;SDS011;15183;51.350;11.102;2023-04-24T11:40:32;7.63;;;4.22;;
27804;SDS011;15183;51.350;11.102;2023-04-24T11:42:59;9.95;;;5.93;;
27804;SDS011;15183;51.350;11.102;2023-04-24T11:45:27;5.20;;;4.15;;
27804;SDS011;15183;51.350;11.102;2023-04-24T11:47:55;3.67;;;2.85;;
27804;SDS011;15183;51.350;11.102;2023-04-24T11:50:23;4.43;;;2.28;;
27804;SDS011;15183;51.350;11.102;2023-04-24T11:52:55;6.65;;;3.97;;
27804;SDS011;15183;51.350;11.102;2023-04-24T11:55:22;5.90;;;4.15;;
27804;SDS011;15183;51.350;11.102;2023-04-24T11:57:49;3.78;;;3.05;;
27804;SDS011;15183;51.350;11.102;2023-04-24T12:00:24;2.60;;;2.33;;
27804;SDS011;15183;51.350;11.102;2023-04-24T12:03:03;3.78;;;2.53;;
27804;SDS011;15183;51.350;11.102;2023-04-24T12:05:35;5.57;;;4.28;;
27804;SDS011;15183;51.350;11.102;2023-04-24T12:08:01;4.03;;;3.63;;
27804;SDS011;15183;51.350;11.102;2023-04-24T12:10:28;7.60;;;4.72;;
27804;SDS011;15183;51.350;11.102;2023-04-24T12:12:57;3.55;;;2.78;;
27804;SDS011;15183;51.350;11.102;2023-04-24T12:15:24;6.15;;;3.92;;
27804;SDS011;15183;51.350;11.102;2023-04-24T12:17:51;4.78;;;3.17;;
27804;SDS011;15183;51.350;11.102;2023-04-24T12:20:26;5.78;;;3.25;;
27804;SDS011;15183;51.350;11.102;2023-04-24T12:22:57;4.88;;;2.97;;
27804;SDS011;15183;51.350;11.102;2023-04-24T12:25:26;2.35;;;2.15;;
27804;SDS011;15183;51.350;11.102;2023-04-24T12:27:57;4.18;;;3.30;;
27804;SDS011;15183;51.350;11.102;2023-04-24T12:30:41;3.78;;;2.30;;
27804;SDS011;15183;51.350;11.102;2023-04-24T12:33:20;5.32;;;3.70;;
27804;SDS011;15183;51.350;11.102;2023-04-24T12:35:48;2.67;;;2.47;;
27804;SDS011;15183;51.350;11.102;2023-04-24T12:38:21;3.97;;;2.83;;
27804;SDS011;15183;51.350;11.102;2023-04-24T12:41:05;3.72;;;3.00;;
27804;SDS011;15183;51.350;11.102;2023-04-24T12:43:33;4.30;;;3.10;;
27804;SDS011;15183;51.350;11.102;2023-04-24T12:46:01;8.07;;;2.13;;
27804;SDS011;15183;51.350;11.102;2023-04-24T12:48:28;3.22;;;2.15;;
27804;SDS011;15183;51.350;11.102;2023-04-24T12:50:59;2.38;;;1.70;;
27804;SDS011;15183;51.350;11.102;2023-04-24T12:53:28;3.47;;;2.22;;
27804;SDS011;15183;51.350;11.102;2023-04-24T12:55:55;5.70;;;3.05;;
27804;SDS011;15183;51.350;11.102;2023-04-24T12:58:22;2.95;;;2.10;;
27804;SDS011;15183;51.350;11.102;2023-04-24T13:00:49;3.45;;;2.65;;
27804;SDS011;15183;51.350;11.102;2023-04-24T13:03:15;3.22;;;2.53;;
27804;SDS011;15183;51.350;11.102;2023-04-24T13:05:43;3.30;;;2.17;;
27804;SDS011;15183;51.350;11.102;2023-04-24T13:08:10;2.55;;;1.92;;
27804;SDS011;15183;51.350;11.102;2023-04-24T13:10:36;2.95;;;2.42;;
27804;SDS011;15183;51.350;11.102;2023-04-24T13:13:03;1.85;;;1.45;;
27804;SDS011;15183;51.350;11.102;2023-04-24T13:18:23;4.03;;;2.35;;
27804;SDS011;15183;51.350;11.102;2023-04-24T13:20:50;2.25;;;1.73;;
27804;SDS011;15183;51.350;11.102;2023-04-24T13:23:16;1.98;;;1.10;;
27804;SDS011;15183;51.350;11.102;2023-04-24T13:25:43;1.92;;;1.30;;
27804;SDS011;15183;51.350;11.102;2023-04-24T13:28:09;2.75;;;1.17;;
27804;SDS011;15183;51.350;11.102;2023-04-24T13:30:35;1.80;;;1.35;;
27804;SDS011;15183;51.350;11.102;2023-04-24T13:33:02;1.38;;;1.20;;
27804;SDS011;15183;51.350;11.102;2023-04-24T13:35:28;1.20;;;1.10;;
27804;SDS011;15183;51.350;11.102;2023-04-24T13:37:55;1.08;;;0.88;;
27804;SDS011;15183;51.350;11.102;2023-04-24T13:40:21;2.75;;;1.70;;
27804;SDS011;15183;51.350;11.102;2023-04-24T13:42:48;1.35;;;1.23;;
27804;SDS011;15183;51.350;11.102;2023-04-24T13:45:15;1.92;;;1.42;;
27804;SDS011;15183;51.350;11.102;2023-04-24T13:47:41;3.67;;;1.60;;
27804;SDS011;15183;51.350;11.102;2023-04-24T13:50:08;2.03;;;1.40;;
27804;SDS011;15183;51.350;11.102;2023-04-24T13:52:35;1.40;;;1.02;;
27804;SDS011;15183;51.350;11.102;2023-04-24T13:55:02;5.30;;;1.30;;
27804;SDS011;15183;51.350;11.102;2023-04-24T13:57:28;1.52;;;0.73;;
27804;SDS011;15183;51.350;11.102;2023-04-24T13:59:57;1.73;;;1.33;;
27804;SDS011;15183;51.350;11.102;2023-04-24T14:02:29;0.80;;;0.80;;
27804;SDS011;15183;51.350;11.102;2023-04-24T14:04:56;0.90;;;0.57;;
27804;SDS011;15183;51.350;11.102;2023-04-24T14:07:22;0.73;;;0.50;;
27804;SDS011;15183;51.350;11.102;2023-04-24T14:09:48;0.85;;;0.60;;
27804;SDS011;15183;51.350;11.102;2023-04-24T14:12:16;1.33;;;0.70;;
27804;SDS011;15183;51.350;11.102;2023-04-24T14:14:45;1.20;;;0.77;;
27804;SDS011;15183;51.350;11.102;2023-04-24T14:17:13;1.08;;;0.60;;
27804;SDS011;15183;51.350;11.102;2023-04-24T14:19:40;1.02;;;0.80;;
27804;SDS011;15183;51.350;11.102;2023-04-24T14:22:07;1.02;;;0.88;;
27804;SDS011;15183;51.350;11.102;2023-04-24T14:24:34;1.95;;;0.80;;
27804;SDS011;15183;51.350;11.102;2023-04-24T14:27:01;0.55;;;0.55;;
27804;SDS011;15183;51.350;11.102;2023-04-24T14:29:28;0.77;;;0.45;;
27804;SDS011;15183;51.350;11.102;2023-04-24T14:31:55;0.80;;;0.80;;
27804;SDS011;15183;51.350;11.102;2023-04-24T14:38:03;2.28;;;1.05;;
27804;SDS011;15183;51.350;11.102;2023-04-24T14:40:29;0.90;;;0.90;;
27804;SDS011;15183;51.350;11.102;2023-04-24T14:42:56;2.08;;;0.60;;
27804;SDS011;15183;51.350;11.102;2023-04-24T14:45:26;1.25;;;0.90;;
27804;SDS011;15183;51.350;11.102;2023-04-24T14:47:53;0.80;;;0.70;;
27804;SDS011;15183;51.350;11.102;2023-04-24T14:50:20;1.38;;;1.00;;
27804;SDS011;15183;51.350;11.102;2023-04-24T14:52:47;1.92;;;0.90;;